Time;durP1;ratioP1;P1;durP2;ratioP2;P2;SDS_P1;SDS_P2;PMS_P1;PMS_P2;Temp;Humidity;BMP_temperature;BMP_pressure;BME280_temperature;BME280_humidity;BME280_pressure;Samples;Min_cycle;Max_cycle;Signal;HPM_P1;HPM_P2
2022/09/30 00:03:04;;;;;;;28.23;15.13;;;;;;;14.14;100.00;97245.47;10462280;28;20070;-58
2022/09/30 00:08:03;;;;;;;24.63;15.65;;;;;;;13.94;100.00;97253.78;10462368;28;20035;-58
2022/09/30 00:13:02;;;;;;;26.38;16.80;;;;;;;13.86;100.00;97263.50;10462289;28;20028;-57
2022/09/30 00:18:01;;;;;;;27.75;16.65;;;;;;;13.90;100.00;97258.19;10462484;28;20607;-58
2022/09/30 00:23:00;;;;;;;25.33;17.60;;;;;;;13.95;100.00;97266.78;10462109;28;20168;-58
2022/09/30 00:27:58;;;;;;;25.55;16.60;;;;;;;13.95;100.00;97272.00;10461558;28;20028;-57
2022/09/30 00:32:57;;;;;;;24.35;16.75;;;;;;;13.97;100.00;97259.78;10461303;28;20032;-58
2022/09/30 00:37:58;;;;;;;23.88;15.38;;;;;;;13.90;100.00;97252.97;10461253;28;20126;-58
2022/09/30 00:42:59;;;;;;;20.98;14.00;;;;;;;13.89;100.00;97247.78;10460825;28;20503;-57
2022/09/30 00:48:07;;;;;;;21.77;13.60;;;;;;;13.85;100.00;97260.06;10460724;28;20060;-58
2022/09/30 00:53:12;;;;;;;21.10;13.50;;;;;;;13.69;100.00;97253.44;10460715;28;20060;-59
2022/09/30 00:58:26;;;;;;;22.65;13.52;;;;;;;13.60;100.00;97264.94;10459871;28;20081;-59
2022/09/30 01:03:25;;;;;;;22.08;14.48;;;;;;;13.51;100.00;97278.13;10460150;28;20055;-59
2022/09/30 01:08:26;;;;;;;22.40;14.20;;;;;;;13.45;100.00;97233.94;10460132;28;20063;-58
2022/09/30 01:13:27;;;;;;;24.35;14.80;;;;;;;13.37;100.00;97208.03;10459542;28;20067;-59
2022/09/30 01:18:58;;;;;;;24.08;15.27;;;;;;;13.34;100.00;97241.97;10459554;28;20056;-59
2022/09/30 01:24:24;;;;;;;22.77;15.05;;;;;;;13.30;100.00;97248.97;10458851;28;20068;-58
2022/09/30 01:29:35;;;;;;;23.40;15.43;;;;;;;13.26;100.00;97239.53;10459250;28;20064;-59
2022/09/30 01:34:43;;;;;;;23.58;15.07;;;;;;;13.29;100.00;97241.22;10458878;28;20573;-59
2022/09/30 01:39:52;;;;;;;23.70;14.52;;;;;;;13.26;100.00;97233.47;10458375;28;20070;-59
2022/09/30 01:45:08;;;;;;;26.15;15.07;;;;;;;13.20;100.00;97223.16;10458845;28;20051;-59
2022/09/30 01:50:26;;;;;;;25.95;14.43;;;;;;;13.13;100.00;97232.84;10458434;28;20060;-59
2022/09/30 01:55:40;;;;;;;23.05;13.95;;;;;;;12.97;100.00;97221.00;10457965;28;20075;-59
2022/09/30 02:00:43;;;;;;;27.58;14.80;;;;;;;13.02;100.00;97234.78;10457971;28;20546;-59
2022/09/30 02:05:50;;;;;;;31.85;17.33;;;;;;;12.96;100.00;97232.31;10457117;28;20052;-58
2022/09/30 02:10:58;;;;;;;29.17;17.52;;;;;;;12.96;100.00;97235.78;10457573;28;20064;-58
2022/09/30 02:16:11;;;;;;;27.43;16.87;;;;;;;12.94;100.00;97243.59;10457355;28;20497;-58
2022/09/30 02:21:13;;;;;;;25.95;15.70;;;;;;;12.88;100.00;97242.84;10457208;28;20494;-59
2022/09/30 02:26:18;;;;;;;27.95;16.73;;;;;;;12.77;100.00;97226.59;10456653;28;20067;-59
2022/09/30 02:31:22;;;;;;;30.77;16.92;;;;;;;12.81;100.00;97234.28;10456654;28;20056;-59
2022/09/30 02:36:50;;;;;;;26.52;15.48;;;;;;;12.75;100.00;97244.84;10456563;28;20059;-59
2022/09/30 02:41:57;;;;;;;33.30;16.92;;;;;;;12.69;100.00;97232.78;10456578;28;20055;-59
2022/09/30 02:47:06;;;;;;;28.55;16.05;;;;;;;12.64;100.00;97238.97;10456368;28;20054;-58
2022/09/30 02:52:20;;;;;;;26.27;15.43;;;;;;;12.61;100.00;97245.09;10456274;28;20060;-58
2022/09/30 02:57:54;;;;;;;31.67;16.40;;;;;;;12.62;100.00;97257.19;10456192;28;20055;-58
2022/09/30 03:02:58;;;;;;;29.50;16.50;;;;;;;12.57;100.00;97255.56;10451534;28;20075;-58
2022/09/30 03:07:57;;;;;;;36.17;18.02;;;;;;;12.42;100.00;97254.09;10455561;28;20060;-58
2022/09/30 03:13:25;;;;;;;27.85;16.00;;;;;;;12.32;100.00;97274.16;10455534;28;20052;-58
2022/09/30 03:18:40;;;;;;;32.67;17.73;;;;;;;12.23;100.00;97282.09;10452420;28;20074;-58
2022/09/30 03:23:39;;;;;;;30.33;17.17;;;;;;;12.22;100.00;97289.03;10455019;28;20058;-58
2022/09/30 03:28:50;;;;;;;33.20;17.13;;;;;;;12.21;100.00;97302.94;10454882;28;20035;-58
2022/09/30 03:34:03;;;;;;;32.50;17.83;;;;;;;12.18;100.00;97291.69;10453016;28;20072;-58
2022/09/30 03:39:26;;;;;;;29.50;17.23;;;;;;;12.20;100.00;97290.78;10454590;28;20067;-58
2022/09/30 03:44:39;;;;;;;35.67;18.20;;;;;;;12.23;100.00;97295.13;10454748;28;20075;-58
2022/09/30 03:49:47;;;;;;;29.05;16.60;;;;;;;12.21;100.00;97296.88;10454702;28;20059;-58
2022/09/30 03:54:51;;;;;;;31.52;18.33;;;;;;;12.00;100.00;97298.03;10452853;28;20121;-59
2022/09/30 03:59:50;;;;;;;32.30;18.58;;;;;;;11.97;100.00;97313.66;10454458;28;20066;-58
2022/09/30 04:04:49;;;;;;;36.58;19.25;;;;;;;11.88;100.00;97323.34;10454138;28;20098;-58
2022/09/30 04:09:48;;;;;;;29.77;18.30;;;;;;;11.83;100.00;97306.94;10454411;28;20035;-58
2022/09/30 04:14:47;;;;;;;36.58;19.83;;;;;;;11.81;100.00;97302.63;10446305;28;20419;-58
2022/09/30 04:19:46;;;;;;;37.78;19.98;;;;;;;11.82;100.00;97307.81;10451802;28;20107;-59
2022/09/30 04:24:46;;;;;;;36.35;21.50;;;;;;;11.78;100.00;97311.34;10451730;28;20028;-58
2022/09/30 04:29:45;;;;;;;40.53;21.75;;;;;;;11.82;100.00;97323.41;10453869;28;20076;-59
2022/09/30 04:34:44;;;;;;;37.28;20.75;;;;;;;11.81;100.00;97319.09;10459556;28;20119;-58
2022/09/30 04:39:43;;;;;;;38.58;22.35;;;;;;;11.95;100.00;97325.88;10459216;28;20044;-58
2022/09/30 04:44:42;;;;;;;35.85;21.75;;;;;;;11.99;100.00;97330.13;10459281;28;20521;-58
2022/09/30 04:49:41;;;;;;;40.67;21.90;;;;;;;12.06;100.00;97319.63;10446709;28;20037;-58
2022/09/30 04:54:40;;;;;;;37.28;23.15;;;;;;;12.13;100.00;97322.97;10458780;28;20553;-58
2022/09/30 04:59:39;;;;;;;38.13;23.10;;;;;;;12.16;100.00;97356.78;10453668;28;20123;-58
2022/09/30 05:04:39;;;;;;;41.28;25.13;;;;;;;12.19;100.00;97364.53;10432152;28;20067;-58
2022/09/30 05:09:37;;;;;;;;;;;;;;;12.25;100.00;97379.19;10451381;28;20059;-58
2022/09/30 05:14:36;;;;;;;45.83;27.27;;;;;;;12.34;100.00;97380.81;10458105;28;19914;-58
2022/09/30 05:19:35;;;;;;;43.35;26.25;;;;;;;12.44;100.00;97388.50;10458251;28;20039;-58
2022/09/30 05:24:34;;;;;;;48.33;25.85;;;;;;;12.55;100.00;97387.47;10458026;28;20128;-58
2022/09/30 05:29:34;;;;;;;46.13;24.60;;;;;;;12.43;100.00;97365.94;10457092;28;20063;-58
2022/09/30 05:34:33;;;;;;;48.53;26.23;;;;;;;12.70;100.00;97387.25;10449551;28;20107;-58
2022/09/30 05:39:32;;;;;;;46.55;28.92;;;;;;;12.84;100.00;97392.25;10458729;28;20032;-58
2022/09/30 05:44:31;;;;;;;49.58;31.27;;;;;;;12.97;100.00;97404.16;10457875;28;20028;-59
2022/09/30 05:49:33;;;;;;;53.60;34.22;;;;;;;13.10;100.00;97389.22;10457884;28;20056;-58
2022/09/30 05:54:32;;;;;;;69.93;46.55;;;;;;;13.26;100.00;97395.03;10456884;28;20051;-58
2022/09/30 05:59:31;;;;;;;89.00;53.90;;;;;;;13.42;100.00;97395.59;10456820;28;20089;-59
2022/09/30 06:04:30;;;;;;;73.03;48.78;;;;;;;13.59;100.00;97403.16;10451317;28;20737;-58
2022/09/30 06:09:29;;;;;;;52.45;36.90;;;;;;;13.72;100.00;97408.06;10454323;28;20024;-58
2022/09/30 06:14:28;;;;;;;61.20;38.97;;;;;;;13.90;100.00;97409.47;10453621;28;20024;-59
2022/09/30 06:19:29;;;;;;;64.47;42.10;;;;;;;14.11;100.00;97421.22;10456527;28;20539;-59
2022/09/30 06:24:28;;;;;;;61.53;39.97;;;;;;;14.31;100.00;97412.13;10458876;28;20067;-58
2022/09/30 06:29:27;;;;;;;64.97;43.78;;;;;;;14.40;100.00;97433.69;10458323;28;20035;-59
2022/09/30 06:34:26;;;;;;;55.83;39.15;;;;;;;14.32;100.00;97443.41;10456380;28;20040;-59
2022/09/30 06:39:26;;;;;;;44.17;33.50;;;;;;;14.50;100.00;97442.19;10420608;28;20078;-58
2022/09/30 06:44:25;;;;;;;41.75;34.42;;;;;;;14.73;100.00;97446.03;10451522;28;20060;-58
2022/09/30 06:49:25;;;;;;;;;;;;;;;14.70;100.00;97451.31;10456812;28;20052;-58
2022/09/30 06:54:26;;;;;;;29.20;22.20;;;;;;;14.93;100.00;97456.06;10455417;28;20146;-58
2022/09/30 06:59:26;;;;;;;23.10;18.20;;;;;;;15.04;100.00;97438.38;10456196;28;20070;-58
2022/09/30 07:04:24;;;;;;;;;;;;;;;15.41;100.00;97453.13;10457337;28;20063;-60
2022/09/30 07:09:24;;;;;;;22.40;14.33;;;;;;;15.74;100.00;97450.53;10456251;28;19912;-58
2022/09/30 07:14:23;;;;;;;16.23;13.00;;;;;;;16.04;99.63;97462.84;10457663;28;20063;-61
2022/09/30 07:19:22;;;;;;;15.70;11.82;;;;;;;16.42;97.98;97460.03;10457351;28;20070;-60
2022/09/30 07:24:21;;;;;;;;;;;;;;;16.79;93.78;97459.78;10457738;28;20074;-59
2022/09/30 07:29:20;;;;;;;15.17;10.67;;;;;;;17.17;92.39;97460.41;10454860;28;19974;-60
2022/09/30 07:34:19;;;;;;;14.27;10.27;;;;;;;17.55;89.74;97456.50;10456684;28;20581;-59
2022/09/30 07:39:18;;;;;;;17.15;10.18;;;;;;;17.86;88.40;97444.97;10456756;28;20036;-59
2022/09/30 07:44:17;;;;;;;;;;;;;;;18.23;84.41;97458.56;10456852;28;20412;-58
2022/09/30 07:49:23;;;;;;;14.40;8.33;;;;;;;18.60;79.37;97453.66;10456766;28;19931;-59
2022/09/30 07:54:25;;;;;;;11.05;6.15;;;;;;;19.07;76.49;97463.28;10456850;28;20055;-59
2022/09/30 07:59:26;;;;;;;6.30;4.00;;;;;;;19.42;68.04;97468.88;10455627;28;20066;-59
2022/09/30 08:04:25;;;;;;;5.70;3.92;;;;;;;19.91;62.26;97460.69;10457450;28;20056;-57
2022/09/30 08:09:26;;;;;;;6.82;4.72;;;;;;;20.43;60.65;97466.34;10464423;28;20066;-59
2022/09/30 08:14:26;;;;;;;7.32;4.20;;;;;;;20.71;59.24;97479.97;10464205;28;20060;-60
2022/09/30 08:19:26;;;;;;;6.47;3.92;;;;;;;20.91;55.92;97468.50;10463760;28;20051;-59
2022/09/30 08:24:26;;;;;;;6.45;4.03;;;;;;;21.11;58.22;97472.81;10463888;28;20067;-59
2022/09/30 08:29:25;;;;;;;9.27;3.50;;;;;;;21.19;56.14;97468.94;10463509;28;20063;-59
2022/09/30 08:34:24;;;;;;;6.43;3.72;;;;;;;21.34;54.62;97457.69;10463327;28;20150;-59
2022/09/30 08:39:23;;;;;;;6.18;3.33;;;;;;;21.64;54.48;97476.44;10463108;28;20038;-59
2022/09/30 08:44:46;;;;;;;3.50;2.55;;;;;;;21.85;53.45;97485.06;10463013;28;20036;-59
2022/09/30 08:50:06;;;;;;;6.50;3.30;;;;;;;21.97;52.20;97491.50;10462954;28;20105;-59
2022/09/30 08:55:10;;;;;;;3.95;2.85;;;;;;;22.05;50.96;97485.84;10462711;28;20097;-59
2022/09/30 09:00:15;;;;;;;4.80;2.83;;;;;;;22.27;50.79;97494.38;10462405;28;20060;-59
2022/09/30 09:05:27;;;;;;;5.30;3.08;;;;;;;22.32;48.51;97488.81;10462061;28;20483;-59
2022/09/30 09:10:42;;;;;;;6.88;3.08;;;;;;;22.46;48.96;97477.50;10461697;28;20498;-60
2022/09/30 09:16:04;;;;;;;3.38;2.72;;;;;;;22.72;46.58;97497.28;10461317;28;20055;-59
2022/09/30 09:21:30;;;;;;;4.70;2.58;;;;;;;22.93;47.10;97513.81;10461012;28;20482;-59
2022/09/30 09:26:34;;;;;;;6.47;2.90;;;;;;;23.08;45.30;97512.97;10426404;28;20072;-59
2022/09/30 09:31:33;;;;;;;5.25;2.47;;;;;;;23.15;44.44;97516.97;10463909;28;20072;-59
2022/09/30 09:37:00;;;;;;;3.97;2.70;;;;;;;23.47;44.26;97518.78;10463358;28;20065;-59
2022/09/30 09:42:25;;;;;;;3.45;2.17;;;;;;;23.68;43.65;97504.31;10464237;28;20027;-59
2022/09/30 09:47:24;;;;;;;4.82;2.60;;;;;;;23.78;42.21;97507.28;10393399;28;20106;-59
2022/09/30 09:52:47;;;;;;;3.05;2.20;;;;;;;23.91;40.28;97518.88;10458799;28;20106;-59
2022/09/30 09:57:46;;;;;;;5.00;2.17;;;;;;;24.08;40.79;97507.28;10459820;28;20036;-59
2022/09/30 10:03:09;;;;;;;5.90;2.63;;;;;;;24.34;39.78;97520.78;10462568;28;20048;-59
2022/09/30 10:08:20;;;;;;;5.13;2.97;;;;;;;24.32;40.30;97528.81;10462277;28;20063;-59
2022/09/30 10:13:28;;;;;;;4.82;2.95;;;;;;;24.26;38.35;97518.56;10461067;28;20161;-59
2022/09/30 10:18:31;;;;;;;5.30;2.83;;;;;;;24.25;38.23;97508.94;10460432;28;20101;-60
2022/09/30 10:23:36;;;;;;;3.63;2.25;;;;;;;24.39;37.67;97505.44;10457008;28;20062;-60
2022/09/30 10:28:45;;;;;;;4.75;2.95;;;;;;;24.54;37.93;97514.25;10453418;28;20059;-59
2022/09/30 10:34:12;;;;;;;2.72;2.00;;;;;;;24.59;35.96;97507.75;10453643;28;20071;-59
2022/09/30 10:39:28;;;;;;;4.80;2.10;;;;;;;24.47;36.41;97474.88;10446597;28;20063;-60
2022/09/30 10:44:28;;;;;;;4.93;2.28;;;;;;;24.81;37.05;97511.69;10456058;28;20482;-60
2022/09/30 10:49:40;;;;;;;3.28;2.45;;;;;;;25.01;36.68;97519.31;10451904;28;20066;-60
2022/09/30 10:54:39;;;;;;;4.57;2.95;;;;;;;25.13;35.69;97520.31;10457516;28;20063;-60
2022/09/30 10:59:41;;;;;;;3.72;2.72;;;;;;;25.23;36.85;97509.97;10457802;28;20024;-59
2022/09/30 11:04:47;;;;;;;5.43;3.17;;;;;;;25.17;35.93;97508.53;10456361;28;20059;-59
2022/09/30 11:09:56;;;;;;;5.22;3.08;;;;;;;25.23;36.53;97504.66;10454424;28;20455;-60
2022/09/30 11:15:49;;;;;;;5.75;3.10;;;;;;;25.26;36.56;97512.41;10451943;28;20495;-60
2022/09/30 11:20:58;;;;;;;7.72;3.25;;;;;;;25.26;36.98;97509.75;10323602;28;20072;-60
2022/09/30 11:25:56;;;;;;;;;;;;;;;25.38;36.81;97516.06;10326500;28;20084;-60
2022/09/30 11:31:04;;;;;;;7.00;3.33;;;;;;;25.40;36.69;97522.13;10390907;28;19915;-60
2022/09/30 11:36:38;;;;;;;5.97;2.90;;;;;;;25.57;36.31;97529.03;10453396;28;20097;-60
2022/09/30 11:41:48;;;;;;;5.68;2.88;;;;;;;25.45;36.18;97514.72;10438175;28;20067;-60
2022/09/30 11:47:08;;;;;;;4.53;2.85;;;;;;;25.72;34.47;97522.72;10463010;28;20056;-59
2022/09/30 11:52:23;;;;;;;7.28;2.75;;;;;;;25.90;34.46;97528.59;10462547;28;20127;-59
2022/09/30 11:57:42;;;;;;;7.38;3.13;;;;;;;25.95;35.65;97526.50;10463225;28;20059;-59
2022/09/30 12:02:46;;;;;;;4.80;3.53;;;;;;;25.88;35.39;97527.88;10461745;28;20495;-60
2022/09/30 12:07:51;;;;;;;6.85;4.10;;;;;;;26.08;36.80;97526.53;10462766;28;20059;-59
2022/09/30 12:12:59;;;;;;;7.70;4.05;;;;;;;26.25;36.72;97533.38;10462450;28;20063;-59
2022/09/30 12:18:03;;;;;;;6.07;3.28;;;;;;;26.40;36.30;97523.53;10462292;28;20060;-60
2022/09/30 12:23:30;;;;;;;7.82;3.90;;;;;;;26.36;36.51;97537.00;10462937;28;20071;-60
2022/09/30 12:34:23;;;;;;;6.68;2.95;;;;;;;26.25;35.05;97536.03;10465142;28;20052;-60
2022/09/30 12:39:28;;;;;;;;;;;;;;;26.32;35.41;97534.66;10465446;28;20024;-60
2022/09/30 12:44:48;;;;;;;5.15;3.00;;;;;;;26.38;35.31;97544.91;10460898;28;19962;-60
2022/09/30 12:49:48;;;;;;;6.63;2.88;;;;;;;26.28;35.36;97546.50;10464011;28;20430;-60
2022/09/30 12:54:59;;;;;;;6.70;3.22;;;;;;;26.29;35.32;97550.84;10464403;28;20039;-60
2022/09/30 13:00:13;;;;;;;8.68;2.80;;;;;;;26.42;35.53;97550.84;10464418;28;20071;-60
2022/09/30 13:05:30;;;;;;;7.55;3.35;;;;;;;26.70;36.05;97553.31;10464104;28;20075;-60
2022/09/30 13:10:32;;;;;;;5.40;2.67;;;;;;;26.73;34.54;97544.25;10463962;28;20035;-60
2022/09/30 13:15:31;;;;;;;7.43;2.80;;;;;;;26.70;34.90;97544.50;10463693;28;20031;-60
2022/09/30 13:20:53;;;;;;;5.15;2.63;;;;;;;26.90;34.01;97549.28;10463026;28;20035;-60
2022/09/30 13:25:53;;;;;;;6.20;2.55;;;;;;;26.98;33.50;97549.59;10460582;28;20055;-60
2022/09/30 13:31:11;;;;;;;8.30;3.58;;;;;;;27.05;34.80;97552.69;10459310;28;20086;-60
2022/09/30 13:36:17;;;;;;;5.82;2.00;;;;;;;26.92;33.14;97550.03;10459258;28;20090;-60
2022/09/30 13:41:23;;;;;;;3.97;2.47;;;;;;;26.97;33.58;97550.53;10459440;28;20052;-60
2022/09/30 13:46:29;;;;;;;5.00;2.65;;;;;;;26.96;34.50;97562.16;10458742;28;20068;-60
2022/09/30 13:51:31;;;;;;;4.65;2.28;;;;;;;26.92;33.38;97558.00;10459049;28;20066;-60
2022/09/30 13:56:38;;;;;;;4.88;2.22;;;;;;;26.86;32.87;97555.78;10458891;28;20051;-60
2022/09/30 14:01:44;;;;;;;4.30;2.20;;;;;;;26.78;32.96;97558.09;10457159;28;20058;-60
2022/09/30 14:07:15;;;;;;;8.20;2.50;;;;;;;26.79;33.86;97566.00;10458150;28;20063;-59
2022/09/30 14:12:52;;;;;;;4.82;1.95;;;;;;;26.76;34.21;97570.66;10457723;28;20065;-60
2022/09/30 14:18:26;;;;;;;6.40;2.60;;;;;;;26.62;34.39;97578.75;10455170;28;20454;-59
2022/09/30 14:23:25;;;;;;;6.78;2.67;;;;;;;26.48;34.79;97583.22;10450596;28;20111;-59
2022/09/30 14:28:34;;;;;;;4.63;2.40;;;;;;;26.41;35.42;97592.56;10455847;28;20034;-60
2022/09/30 14:33:35;;;;;;;6.95;2.97;;;;;;;26.31;35.72;97607.47;10455439;28;20082;-60
2022/09/30 14:38:35;;;;;;;5.13;2.25;;;;;;;26.10;35.37;97599.94;10455078;28;20110;-59
2022/09/30 14:43:39;;;;;;;5.35;2.83;;;;;;;26.02;36.26;97618.22;10455359;28;20051;-59
2022/09/30 14:48:41;;;;;;;5.13;2.42;;;;;;;25.89;36.26;97614.66;10453217;28;20459;-59
2022/09/30 14:53:51;;;;;;;7.10;2.65;;;;;;;25.65;36.46;97617.94;10453846;28;20379;-59
2022/09/30 14:58:51;;;;;;;4.70;2.38;;;;;;;25.48;36.08;97626.97;10454468;28;20055;-59
2022/09/30 15:03:54;;;;;;;4.80;2.60;;;;;;;25.40;36.31;97636.38;10455017;28;20071;-59
2022/09/30 15:09:05;;;;;;;4.72;2.88;;;;;;;25.32;36.76;97637.72;10455694;28;20074;-59
2022/09/30 15:14:10;;;;;;;4.90;2.42;;;;;;;25.29;37.64;97648.53;10455301;28;20084;-58
2022/09/30 15:19:37;;;;;;;6.15;2.83;;;;;;;25.07;38.87;97632.22;10455347;28;20070;-60
2022/09/30 15:24:37;;;;;;;5.50;2.97;;;;;;;24.91;38.92;97640.25;10455399;28;20063;-60
2022/09/30 15:29:36;;;;;;;5.03;3.15;;;;;;;24.70;40.22;97645.88;10448847;28;20044;-60
2022/09/30 15:34:35;;;;;;;10.45;4.00;;;;;;;24.45;41.25;97653.59;10453825;28;20075;-60
2022/09/30 15:45:28;;;;;;;9.10;3.95;;;;;;;23.75;43.23;97663.78;10452741;28;20119;-60
2022/09/30 15:50:39;;;;;;;7.88;3.95;;;;;;;23.44;44.31;97673.38;10453316;28;20078;-59
2022/09/30 15:55:43;;;;;;;10.07;3.92;;;;;;;23.18;45.10;97677.44;10453517;28;20071;-59
2022/09/30 16:00:44;;;;;;;8.60;4.55;;;;;;;22.88;45.69;97686.06;10453001;28;20064;-59
2022/09/30 16:05:46;;;;;;;11.75;4.50;;;;;;;22.53;46.30;97688.69;10453637;28;20063;-60
2022/09/30 16:10:49;;;;;;;6.57;3.65;;;;;;;22.22;46.87;97699.91;10446185;28;20063;-59
2022/09/30 16:15:49;;;;;;;10.63;3.30;;;;;;;21.87;47.50;97702.44;10453211;28;20082;-59
2022/09/30 16:21:26;;;;;;;6.40;3.72;;;;;;;21.57;48.50;97698.59;10452341;28;20067;-59
2022/09/30 16:26:28;;;;;;;7.07;3.28;;;;;;;21.28;48.91;97708.72;10430973;28;20094;-59
2022/09/30 16:31:29;;;;;;;9.45;4.30;;;;;;;21.00;49.71;97720.44;10459474;28;20822;-60
2022/09/30 16:36:28;;;;;;;13.38;9.15;;;;;;;20.66;51.55;97724.53;10363392;28;20563;-60
2022/09/30 16:41:27;;;;;;;9.68;6.22;;;;;;;20.36;52.17;97736.34;10375259;28;20534;-59
2022/09/30 16:46:26;;;;;;;10.32;4.95;;;;;;;20.11;52.53;97736.44;10376855;28;20607;-59
2022/09/30 16:51:25;;;;;;;9.20;4.10;;;;;;;19.97;52.50;97739.63;10377108;28;20587;-60
2022/09/30 16:56:25;;;;;;;9.45;4.65;;;;;;;19.87;52.94;97754.94;10373224;28;20052;-59
2022/09/30 17:01:25;;;;;;;13.23;5.68;;;;;;;19.74;53.90;97757.16;10373426;28;20515;-59
2022/09/30 17:06:27;;;;;;;10.85;5.80;;;;;;;19.57;54.99;97765.69;10373349;28;20071;-60
2022/09/30 17:11:29;;;;;;;12.63;6.88;;;;;;;19.39;55.78;97769.84;10377267;28;20067;-59
2022/09/30 17:16:28;;;;;;;13.80;8.10;;;;;;;19.11;59.63;97775.22;10377979;28;20460;-59
2022/09/30 17:21:27;;;;;;;17.77;7.82;;;;;;;18.72;61.30;97756.44;10377464;28;20515;-59
2022/09/30 17:26:27;;;;;;;16.60;9.20;;;;;;;18.77;62.23;97788.66;10380097;28;20039;-59
2022/09/30 17:31:27;;;;;;;18.92;10.00;;;;;;;18.62;63.86;97803.16;10380696;28;20518;-60
2022/09/30 17:36:26;;;;;;;21.63;9.57;;;;;;;18.52;64.01;97807.81;10379989;28;20048;-59
2022/09/30 17:46:44;;;;;;;16.50;10.40;;;;;;;18.31;65.88;97816.38;10380258;28;20495;-60
2022/09/30 17:51:43;;;;;;;19.73;9.75;;;;;;;18.19;66.92;97815.00;10379957;28;20488;-59
2022/09/30 17:56:43;;;;;;;20.73;8.98;;;;;;;18.05;67.57;97822.44;10379610;28;20484;-59
2022/09/30 18:01:42;;;;;;;26.08;10.75;;;;;;;17.93;68.56;97821.91;10379596;28;20029;-59
2022/09/30 18:06:41;;;;;;;18.95;10.25;;;;;;;17.83;69.09;97820.47;10379118;28;20064;-59
2022/09/30 18:11:40;;;;;;;19.15;12.23;;;;;;;17.66;71.07;97835.78;10378843;28;20400;-59
2022/09/30 18:16:39;;;;;;;24.48;12.40;;;;;;;17.54;71.83;97847.47;10379140;28;20396;-60
2022/09/30 18:21:38;;;;;;;25.08;13.82;;;;;;;17.47;72.38;97854.69;10378621;28;20028;-59
2022/09/30 18:26:37;;;;;;;23.80;14.13;;;;;;;17.35;73.43;97863.75;10375237;28;20037;-59
2022/09/30 18:31:37;;;;;;;;;;;;;;;17.23;73.58;97869.28;10375231;28;20041;-59
2022/09/30 18:36:36;;;;;;;;;;;;;;;17.12;73.84;97861.72;10374942;28;19952;-60
2022/09/30 18:41:34;;;;;;;13.77;8.97;;;;;;;16.99;74.13;97868.16;10374414;28;19904;-59
2022/09/30 18:46:33;;;;;;;;;;;;;;;16.85;75.36;97860.63;10374697;28;20086;-59
2022/09/30 18:51:32;;;;;;;15.90;9.73;;;;;;;16.65;76.39;97857.59;10373470;28;19918;-59
2022/09/30 18:56:31;;;;;;;;;;;;;;;16.50;77.07;97870.16;10374053;28;20025;-59
2022/09/30 19:01:32;;;;;;;17.43;9.47;;;;;;;16.46;76.68;97871.13;10373777;28;19947;-59
2022/09/30 19:06:31;;;;;;;22.23;10.13;;;;;;;16.25;77.21;97842.78;10373502;28;20056;-59
2022/09/30 19:11:31;;;;;;;23.02;11.57;;;;;;;16.29;78.23;97873.25;10373523;28;20904;-59
2022/09/30 19:16:32;;;;;;;18.35;10.75;;;;;;;16.26;78.15;97863.72;10373126;28;20063;-59
2022/09/30 19:21:35;;;;;;;19.55;12.90;;;;;;;16.19;78.93;97874.38;10373360;28;20056;-59
2022/09/30 19:26:36;;;;;;;28.77;16.95;;;;;;;16.11;79.29;97878.91;10372819;28;20064;-58
2022/09/30 19:31:35;;;;;;;26.38;15.48;;;;;;;15.90;81.54;97891.53;10372753;28;20068;-59
2022/09/30 19:36:34;;;;;;;;;;;;;;;15.75;82.88;97892.66;10373350;28;20450;-60
2022/09/30 19:41:34;;;;;;;24.77;16.27;;;;;;;15.72;82.92;97891.88;10372704;28;19958;-59
2022/09/30 19:46:33;;;;;;;24.40;14.55;;;;;;;15.57;84.12;97903.47;10372394;28;20071;-59
2022/09/30 19:51:32;;;;;;;;;;;;;;;15.46;84.71;97916.78;10372962;28;20029;-59
2022/09/30 19:56:32;;;;;;;21.83;12.80;;;;;;;15.27;86.22;97910.13;10373091;28;19952;-59
2022/09/30 20:01:33;;;;;;;20.48;12.48;;;;;;;15.17;86.52;97915.50;10376906;28;20477;-59
2022/09/30 20:06:33;;;;;;;21.77;12.18;;;;;;;15.17;86.11;97920.72;10379988;28;20492;-58
2022/09/30 20:11:34;;;;;;;14.93;9.90;;;;;;;15.14;85.44;97915.56;10380571;28;20064;-59
2022/09/30 20:16:33;;;;;;;17.48;9.75;;;;;;;15.07;84.84;97913.94;10379830;28;20052;-59
2022/09/30 20:21:32;;;;;;;;;;;;;;;14.97;84.87;97923.69;10380299;28;20037;-59
2022/09/30 20:26:33;;;;;;;13.82;10.45;;;;;;;14.89;85.50;97916.84;10382541;28;20040;-58
2022/09/30 20:31:32;;;;;;;17.85;11.18;;;;;;;14.79;85.53;97926.56;10382534;28;20079;-58
2022/09/30 20:36:30;;;;;;;;;;;;;;;14.73;86.10;97927.56;10361510;28;20024;-58
2022/09/30 20:41:35;;;;;;;19.00;10.07;;;;;;;14.66;86.23;97930.22;10380371;28;19908;-59
2022/09/30 20:46:34;;;;;;;13.88;8.88;;;;;;;14.55;86.23;97935.63;10380897;28;20080;-59
2022/09/30 20:51:33;;;;;;;;;;;;;;;14.50;86.25;97922.63;10380482;28;20036;-60
2022/09/30 20:56:32;;;;;;;13.45;8.90;;;;;;;14.38;85.90;97915.81;10381002;28;20339;-58
2022/09/30 21:01:31;;;;;;;17.27;9.35;;;;;;;14.41;86.02;97936.66;10380958;28;20041;-58
2022/09/30 21:06:32;;;;;;;17.70;11.13;;;;;;;14.38;86.62;97941.94;10379487;28;20040;-59
2022/09/30 21:11:31;;;;;;;19.48;11.00;;;;;;;14.34;86.84;97945.44;10378919;28;20057;-59
2022/09/30 21:16:30;;;;;;;20.60;12.35;;;;;;;14.21;88.46;97946.47;10380087;28;20052;-57
2022/09/30 21:21:29;;;;;;;19.13;11.95;;;;;;;14.19;88.25;97954.34;10378969;28;20029;-57
2022/09/30 21:26:28;;;;;;;18.13;11.95;;;;;;;14.13;88.64;97943.97;10376141;28;20121;-57
2022/09/30 21:31:27;;;;;;;17.77;10.82;;;;;;;13.96;89.97;97954.63;10375104;28;20088;-57
2022/09/30 21:36:28;;;;;;;22.40;12.02;;;;;;;13.89;90.85;97952.97;10339043;28;20511;-57
2022/09/30 21:41:27;;;;;;;18.67;11.68;;;;;;;13.87;90.60;97946.91;10334059;28;20458;-57
2022/09/30 21:46:28;;;;;;;23.90;12.13;;;;;;;13.86;90.66;97959.94;10333957;28;20057;-57
2022/09/30 21:51:33;;;;;;;19.13;12.25;;;;;;;13.80;90.98;97970.44;10334030;28;20057;-57
2022/09/30 21:56:32;;;;;;;20.90;11.13;;;;;;;13.70;90.95;97954.03;10334014;28;20063;-57
2022/09/30 22:01:31;;;;;;;17.35;10.57;;;;;;;13.72;91.14;97967.91;10333443;28;20515;-57
2022/09/30 22:06:30;;;;;;;17.58;11.02;;;;;;;13.67;90.81;97969.72;10333743;28;20460;-57
2022/09/30 22:11:30;;;;;;;19.75;11.98;;;;;;;13.56;91.84;97973.28;10332604;28;20516;-57
2022/09/30 22:16:35;;;;;;;18.10;12.68;;;;;;;13.42;92.33;97967.31;10329300;28;20061;-57
2022/09/30 22:21:36;;;;;;;23.55;13.38;;;;;;;13.18;92.87;97960.56;10329864;28;20053;-57
2022/09/30 22:26:36;;;;;;;19.00;12.73;;;;;;;13.08;94.10;97991.03;10328800;28;20053;-57
2022/09/30 22:31:36;;;;;;;19.90;12.52;;;;;;;13.02;94.37;97998.00;10330479;28;20076;-57
2022/09/30 22:41:55;;;;;;;17.17;12.07;;;;;;;12.93;94.69;98004.19;10332074;28;20061;-59
2022/09/30 22:46:56;;;;;;;15.75;11.90;;;;;;;12.89;94.47;98025.91;10331678;28;20091;-58
2022/09/30 22:51:56;;;;;;;19.42;12.55;;;;;;;12.85;94.57;98024.19;10331493;28;20492;-59
2022/09/30 22:56:57;;;;;;;17.20;11.77;;;;;;;12.84;94.86;98027.66;10331356;28;20049;-59
2022/09/30 23:01:56;;;;;;;17.42;11.55;;;;;;;12.80;95.00;98028.56;10330986;28;20072;-59
2022/09/30 23:06:55;;;;;;;21.52;13.10;;;;;;;12.81;95.01;98033.72;10331374;28;20057;-58
2022/09/30 23:11:55;;;;;;;18.50;11.93;;;;;;;12.78;95.13;98038.09;10330449;28;20029;-59
2022/09/30 23:16:54;;;;;;;16.95;11.77;;;;;;;12.78;95.22;98030.28;10330777;28;20061;-59
2022/09/30 23:21:53;;;;;;;19.30;11.75;;;;;;;12.75;95.12;98025.13;10330941;28;20344;-59
2022/09/30 23:26:52;;;;;;;14.73;11.15;;;;;;;12.68;95.05;98017.31;10332261;28;20148;-59
2022/09/30 23:31:51;;;;;;;16.10;11.18;;;;;;;12.61;95.08;98020.84;10333502;28;20056;-59
2022/09/30 23:36:50;;;;;;;16.50;11.00;;;;;;;12.56;95.68;98020.00;10333808;28;20120;-59
2022/09/30 23:41:49;;;;;;;18.15;11.45;;;;;;;12.54;95.68;98023.47;10333287;28;20025;-59